Terminal Aerodrome Forecast
Issued by NWS Jackson, KY

Home | Current Version | Previous Version | Text Only | Print | Product List | Glossary On
Versions: 1 2 3 4 5 6 7 8 9 10 11 12 13 14 15
000
FTUS43 KJKL 270539
TAFLOZ
TAF
KLOZ 270539Z 2706/2806 34006KT P6SM SCT009 OVC020
     FM271000 34005KT 6SM BR SCT025 BKN050
     FM271800 32007KT P6SM VCSH BKN050
     FM280100 33004KT P6SM SCT050=

USA.gov is the U.S. government's official web portal to all federal, state and local government web resources and services.